This is the latest recevied weather packets stored in our database for station/object AI5BL. If no packets are shown the sender has not sent any weather packets the latest 10 day(s).
| Time | Temp. | Humidity | Pressure | Rain* | Wind** | Luminosity | Snow |
|---|---|---|---|---|---|---|---|
| 1788373469 | 36.11° C | 47% | 1019.3 hPa | 0 mm | - | 758 W/m² | - |
| 1788373165 | 36.11° C | 52% | 1019.1 hPa | 0 mm | - | 860 W/m² | - |
| 1788372860 | 36.67° C | 50% | 1019.3 hPa | 0 mm | - | 178 W/m² | - |
| 1788372554 | 36.67° C | 50% | 1019.2 hPa | 0 mm | - | 855 W/m² | - |
| 1788372250 | 35.56° C | 52% | 1019.3 hPa | 0 mm | - | 851 W/m² | - |
| 1788371945 | 36.11° C | 48% | 1019.4 hPa | 0 mm | - | 839 W/m² | - |
| 1788371640 | 35.56° C | 51% | 1019.3 hPa | 0 mm | - | 822 W/m² | - |
| 1788371336 | 35.56° C | 52% | 1019.5 hPa | 0 mm | - | 823 W/m² | - |
| 1788371033 | 36.11° C | 52% | 1019.6 hPa | 0 mm | - | 807 W/m² | - |
| 1788370728 | 35.56° C | 51% | 1019.6 hPa | 0 mm | - | 826 W/m² | - |
| 1788370428 | 35° C | 54% | 1019.8 hPa | 0 mm | - | 827 W/m² | - |
| 1788370123 | 35° C | 54% | 1019.9 hPa | 0 mm | - | 827 W/m² | - |
| 1788369822 | 33.89° C | 62% | 1019.9 hPa | 0 mm | - | 824 W/m² | - |
| 1788369517 | 33.33° C | 66% | 1020 hPa | 0 mm | - | 816 W/m² | - |
| 1788369212 | 33.33° C | 59% | 1020.1 hPa | 0 mm | - | 162 W/m² | - |
| 1788368909 | 33.33° C | 64% | 1020.2 hPa | 0 mm | - | 592 W/m² | - |
| 1788368604 | 33.89° C | 58% | 1020.4 hPa | 0 mm | - | 188 W/m² | - |
| 1788368300 | 33.33° C | 65% | 1020.4 hPa | 0 mm | - | 219 W/m² | - |
| 1788367998 | 32.22° C | 66% | 1020.3 hPa | 0 mm | - | 847 W/m² | - |
| 1788367707 | 31.67° C | 70% | 1020.5 hPa | 0 mm | - | 141 W/m² | - |
| 1788367389 | 32.22° C | 61% | 1020.6 hPa | 0 mm | - | 143 W/m² | - |
| 1788367083 | 32.78° C | 59% | 1020.6 hPa | 0 mm | - | 144 W/m² | - |
| 1788366783 | 32.78° C | 65% | 1020.6 hPa | 0 mm | - | 795 W/m² | - |
| 1788366475 | 32.78° C | 64% | 1020.8 hPa | 0 mm | - | 196 W/m² | - |
| 1788366171 | 32.22° C | 64% | 1020.9 hPa | 0 mm | - | 127 W/m² | - |
* Rain latest hour (hover to see other rain measurements)
** Current wind speed in m/s (hover to see current wind gust speed)